Wednesday, December 12, 2018, 10:55 PM EST
Back to Local

KMPO, Mt Pocono Pocono Mountains

Location: Pocono Summit, PA, United States Lat: 41.133
Local Time: 10:55 PM EST ( 3:55 GMT) Lon: -75.383
Time Zone: US/Eastern Elev: 1915 ft

Show me the last for .
Show Decoded

2018-12-12 21:53 METAR KMPO 130253Z AUTO 09005KT 10SM CLR M04/M06 A3012 RMK AO2 SLP226 T10391056
                 53001 =
2018-12-12 20:53 METAR KMPO 130153Z AUTO 08003KT 10SM CLR M06/M07 A3014 RMK AO2 SLP233 T10561067
                 =
2018-12-12 19:53 METAR KMPO 130053Z AUTO 00000KT 10SM CLR M06/M07 A3009 RMK AO2 PRESFR SLP218
                 T10611072 =
2018-12-12 18:53 METAR KMPO 122353Z AUTO 00000KT 10SM CLR M05/M06 A3012 RMK AO2 SLP227 T10501061
                 11011 21050 53015 =
2018-12-12 17:53 METAR KMPO 122253Z AUTO 00000KT 10SM CLR M03/M06 A3010 RMK AO2 SLP219 T10281061
                 =
2018-12-12 17:29 METAR KMPO 122229Z AUTO 32004KT 10SM SCT021 M02/M06 A3009 RMK AO2 T10221056 =
2018-12-12 16:53 METAR KMPO 122153Z AUTO 28005KT 10SM OVC022 M02/M06 A3008 RMK AO2 SLP211
                 T10171056 =
2018-12-12 15:53 METAR KMPO 122053Z AUTO 30005KT 10SM OVC023 M01/M06 A3007 RMK AO2 SLP208
                 T10111056 51007 =
2018-12-12 14:53 METAR KMPO 121953Z AUTO 30008KT 10SM OVC022 M01/M06 A3007 RMK AO2 SLP207
                 T10111056 =
2018-12-12 13:53 METAR KMPO 121853Z AUTO 28007KT 10SM OVC020 M01/M05 A3006 RMK AO2 SLP205
                 T10111050 =
2018-12-12 12:53 METAR KMPO 121753Z AUTO 33010KT 10SM OVC022 M01/M06 A3005 RMK AO2 SLP202
                 T10111056 11011 21028 50001 =
2018-12-12 11:53 METAR KMPO 121653Z AUTO 30011KT 10SM OVC023 M01/M06 A3006 RMK AO2 SLP203
                 T10111061 =
2018-12-12 10:53 METAR KMPO 121553Z AUTO 30011G17KT 10SM OVC024 M01/M05 A3006 RMK AO2 SLP204
                 T10111050 =
2018-12-12 10:34 METAR KMPO 121534Z AUTO 30011KT 10SM BKN022 OVC028 M02/M05 A3006 RMK AO2
                 T10171050 =
2018-12-12 10:06 METAR KMPO 121506Z AUTO 31010KT 10SM SCT015 SCT030 BKN034 M02/M04 A3005 RMK AO2
                 T10171044 =
2018-12-12 09:53 METAR KMPO 121453Z AUTO 31010KT 10SM BKN015 BKN034 M02/M04 A3005 RMK AO2 SLP200
                 T10171044 50020 =
2018-12-12 09:43 METAR KMPO 121443Z AUTO 30011KT 10SM BKN015 OVC034 M02/M04 A3005 RMK AO2
                 T10171039 =
2018-12-12 08:53 METAR KMPO 121353Z AUTO 29008KT 10SM OVC013 M03/M04 A3005 RMK AO2 SLP202
                 T10281044 =
2018-12-12 08:21 METAR KMPO 121321Z AUTO 30010KT 10SM OVC015 M03/M04 A3003 RMK AO2 T10281044 =
2018-12-12 07:53 METAR KMPO 121253Z AUTO 31014G24KT 10SM OVC011 M03/M04 A3000 RMK AO2 SLP185
                 T10331044 =
2018-12-12 06:53 METAR KMPO 121153Z AUTO 30014G22KT 10SM OVC011 M03/M05 A2999 RMK AO2 SNB00E10
                 SLP181 P0000 60000 T10331050 11033 21044 53017 =
2018-12-12 05:53 METAR KMPO 121053Z AUTO 30011KT 10SM OVC010 M03/M05 A2997 RMK AO2 SLP174
                 T10331050 =
2018-12-12 04:53 METAR KMPO 120953Z AUTO 29014G22KT 10SM OVC010 M04/M05 A2995 RMK AO2 SNE32
                 SLP167 P0000 T10391050 =
2018-12-12 03:53 METAR KMPO 120853Z AUTO 30011KT 4SM -SN BR OVC012 M04/M05 A2993 RMK AO2 SLP160
                 P0000 60000 T10391050 51013 =
2018-12-12 02:53 METAR KMPO 120753Z AUTO 30012KT 10SM -SN OVC013 M04/M06 A2993 RMK AO2 SNB52
                 SLP157 P0000 T10391056 =
2018-12-12 01:53 METAR KMPO 120653Z AUTO 30010KT 10SM BKN013 OVC022 M04/M06 A2991 RMK AO2 SNE31
                 SLP151 P0000 T10441056 =
2018-12-12 01:31 METAR KMPO 120631Z AUTO 29008KT 9SM BKN013 BKN019 OVC025 M04/M06 A2990 RMK AO2
                 SNE31 P0000 T10441056 =
2018-12-12 00:53 METAR KMPO 120553Z AUTO 29008KT 6SM -SN BR FEW010 BKN020 OVC027 M04/M06 A2989
                 RMK AO2 SNE13B23 SLP147 P0000 60000 T10441056 11039 21050 55001 =
2018-12-12 00:14 METAR KMPO 120514Z AUTO 29008KT 9SM BKN022 OVC045 M04/M06 A2989 RMK AO2 SNE13
                 P0000 T10441061 =
2018-12-11 23:53 METAR KMPO 120453Z AUTO 29009KT 6SM -SN BR BKN045 OVC060 M04/M06 A2989 RMK AO2
                 SLP145 P0000 T10441061 400061128 =

Support USWX by starting your Amazon purchase here.